Terminal Aerodrome Forecast
Issued by NWS

Home | Current Version | Previous Version | Text Only | Print | Product List | Glossary On
Versions: 1 2 3 4 5 6 7 8 9 10 11 12 13 14 15 16 17 18 19 20 21 22 23 24 25 26 27 28
000
FTUS46 KEKA 012340
TAFCEC
TAF
KCEC 012340Z 0200/0224 18010KT P6SM SCT004
     FM020300 17006KT 5SM BR OVC004
     FM020600 15004KT 3/4SM BR OVC002
     FM021600 19006KT 4SM BR BKN005
     FM021800 19009KT P6SM SCT005=

USA.gov is the U.S. government's official web portal to all federal, state and local government web resources and services.